sensor_id;sensor_type;location;lat;lon;timestamp;P1;durP1;ratioP1;P2;durP2;ratioP2
22388;SDS011;11362;48.102;11.620;2024-02-23T00:01:53;3.17;;;1.70;;
22388;SDS011;11362;48.102;11.620;2024-02-23T00:04:19;3.87;;;1.60;;
22388;SDS011;11362;48.102;11.620;2024-02-23T00:06:44;3.20;;;1.90;;
22388;SDS011;11362;48.102;11.620;2024-02-23T00:09:10;2.20;;;1.70;;
22388;SDS011;11362;48.102;11.620;2024-02-23T00:11:38;2.73;;;1.70;;
22388;SDS011;11362;48.102;11.620;2024-02-23T00:14:04;3.80;;;1.60;;
22388;SDS011;11362;48.102;11.620;2024-02-23T00:16:29;4.40;;;1.90;;
22388;SDS011;11362;48.102;11.620;2024-02-23T00:18:55;1.90;;;1.73;;
22388;SDS011;11362;48.102;11.620;2024-02-23T00:21:20;3.10;;;1.50;;
22388;SDS011;11362;48.102;11.620;2024-02-23T00:23:45;2.60;;;1.60;;
22388;SDS011;11362;48.102;11.620;2024-02-23T00:26:11;1.10;;;1.10;;
22388;SDS011;11362;48.102;11.620;2024-02-23T00:28:36;1.40;;;1.30;;
22388;SDS011;11362;48.102;11.620;2024-02-23T00:31:01;1.50;;;1.40;;
22388;SDS011;11362;48.102;11.620;2024-02-23T00:33:27;3.00;;;1.60;;
22388;SDS011;11362;48.102;11.620;2024-02-23T00:35:52;4.17;;;1.60;;
22388;SDS011;11362;48.102;11.620;2024-02-23T00:38:17;2.70;;;1.53;;
22388;SDS011;11362;48.102;11.620;2024-02-23T00:40:43;2.87;;;1.30;;
22388;SDS011;11362;48.102;11.620;2024-02-23T00:43:08;1.50;;;1.40;;
22388;SDS011;11362;48.102;11.620;2024-02-23T00:45:33;3.30;;;1.30;;
22388;SDS011;11362;48.102;11.620;2024-02-23T00:47:58;1.30;;;1.20;;
22388;SDS011;11362;48.102;11.620;2024-02-23T00:50:24;2.43;;;1.40;;
22388;SDS011;11362;48.102;11.620;2024-02-23T00:52:49;1.47;;;1.17;;
22388;SDS011;11362;48.102;11.620;2024-02-23T00:55:14;2.87;;;1.60;;
22388;SDS011;11362;48.102;11.620;2024-02-23T00:57:40;1.23;;;0.93;;
22388;SDS011;11362;48.102;11.620;2024-02-23T01:00:05;1.20;;;1.10;;
22388;SDS011;11362;48.102;11.620;2024-02-23T01:02:31;2.07;;;1.00;;
22388;SDS011;11362;48.102;11.620;2024-02-23T01:04:57;1.67;;;1.40;;
22388;SDS011;11362;48.102;11.620;2024-02-23T01:07:22;1.17;;;1.07;;
22388;SDS011;11362;48.102;11.620;2024-02-23T01:09:48;1.60;;;1.10;;
22388;SDS011;11362;48.102;11.620;2024-02-23T01:12:13;2.13;;;1.23;;
22388;SDS011;11362;48.102;11.620;2024-02-23T01:14:38;1.07;;;1.00;;
22388;SDS011;11362;48.102;11.620;2024-02-23T01:17:03;2.87;;;1.10;;
22388;SDS011;11362;48.102;11.620;2024-02-23T01:19:29;1.67;;;0.80;;
22388;SDS011;11362;48.102;11.620;2024-02-23T01:21:54;1.73;;;1.23;;
22388;SDS011;11362;48.102;11.620;2024-02-23T01:24:19;1.13;;;1.03;;
22388;SDS011;11362;48.102;11.620;2024-02-23T01:26:45;1.43;;;1.10;;
22388;SDS011;11362;48.102;11.620;2024-02-23T01:29:10;0.87;;;0.80;;
22388;SDS011;11362;48.102;11.620;2024-02-23T01:31:35;1.27;;;0.93;;
22388;SDS011;11362;48.102;11.620;2024-02-23T01:34:01;1.57;;;1.23;;
22388;SDS011;11362;48.102;11.620;2024-02-23T01:36:26;0.63;;;0.63;;
22388;SDS011;11362;48.102;11.620;2024-02-23T01:38:51;1.47;;;0.93;;
22388;SDS011;11362;48.102;11.620;2024-02-23T01:41:17;1.07;;;1.03;;
22388;SDS011;11362;48.102;11.620;2024-02-23T01:43:42;1.20;;;0.70;;
22388;SDS011;11362;48.102;11.620;2024-02-23T01:46:07;1.27;;;1.13;;
22388;SDS011;11362;48.102;11.620;2024-02-23T01:48:33;1.03;;;0.80;;
22388;SDS011;11362;48.102;11.620;2024-02-23T01:50:58;1.47;;;1.03;;
22388;SDS011;11362;48.102;11.620;2024-02-23T01:53:25;0.90;;;0.90;;
22388;SDS011;11362;48.102;11.620;2024-02-23T01:55:50;1.40;;;1.00;;
22388;SDS011;11362;48.102;11.620;2024-02-23T01:58:16;1.77;;;0.90;;
22388;SDS011;11362;48.102;11.620;2024-02-23T02:00:42;1.37;;;0.77;;
22388;SDS011;11362;48.102;11.620;2024-02-23T02:03:07;0.60;;;0.60;;
22388;SDS011;11362;48.102;11.620;2024-02-23T02:05:33;0.93;;;0.93;;
22388;SDS011;11362;48.102;11.620;2024-02-23T02:08:01;2.07;;;0.70;;
22388;SDS011;11362;48.102;11.620;2024-02-23T02:10:26;1.73;;;0.80;;
22388;SDS011;11362;48.102;11.620;2024-02-23T02:12:51;3.27;;;0.90;;
22388;SDS011;11362;48.102;11.620;2024-02-23T02:15:17;2.23;;;0.97;;
22388;SDS011;11362;48.102;11.620;2024-02-23T02:17:42;1.33;;;0.97;;
22388;SDS011;11362;48.102;11.620;2024-02-23T02:20:10;1.57;;;0.90;;
22388;SDS011;11362;48.102;11.620;2024-02-23T02:22:37;2.03;;;0.83;;
22388;SDS011;11362;48.102;11.620;2024-02-23T02:25:02;2.57;;;0.83;;
22388;SDS011;11362;48.102;11.620;2024-02-23T02:27:28;2.13;;;0.87;;
22388;SDS011;11362;48.102;11.620;2024-02-23T02:29:53;2.43;;;0.90;;
22388;SDS011;11362;48.102;11.620;2024-02-23T02:32:18;3.00;;;0.80;;
22388;SDS011;11362;48.102;11.620;2024-02-23T02:34:43;6.17;;;1.13;;
22388;SDS011;11362;48.102;11.620;2024-02-23T02:37:09;1.47;;;0.87;;
22388;SDS011;11362;48.102;11.620;2024-02-23T02:39:34;2.63;;;1.00;;
22388;SDS011;11362;48.102;11.620;2024-02-23T02:42:00;2.37;;;1.00;;
22388;SDS011;11362;48.102;11.620;2024-02-23T02:44:26;2.13;;;1.00;;
22388;SDS011;11362;48.102;11.620;2024-02-23T02:46:51;2.53;;;0.77;;
22388;SDS011;11362;48.102;11.620;2024-02-23T02:49:16;1.37;;;0.83;;
22388;SDS011;11362;48.102;11.620;2024-02-23T02:51:42;1.20;;;1.10;;
22388;SDS011;11362;48.102;11.620;2024-02-23T02:54:07;1.57;;;1.03;;
22388;SDS011;11362;48.102;11.620;2024-02-23T02:56:32;2.13;;;0.87;;
22388;SDS011;11362;48.102;11.620;2024-02-23T02:58:58;1.07;;;0.90;;
22388;SDS011;11362;48.102;11.620;2024-02-23T03:01:23;1.13;;;1.03;;
22388;SDS011;11362;48.102;11.620;2024-02-23T03:03:48;3.17;;;0.80;;
22388;SDS011;11362;48.102;11.620;2024-02-23T03:06:14;3.53;;;0.90;;
22388;SDS011;11362;48.102;11.620;2024-02-23T03:08:41;1.47;;;0.80;;
22388;SDS011;11362;48.102;11.620;2024-02-23T03:11:07;0.70;;;0.70;;
22388;SDS011;11362;48.102;11.620;2024-02-23T03:13:32;0.80;;;0.60;;
22388;SDS011;11362;48.102;11.620;2024-02-23T03:15:57;2.30;;;0.80;;
22388;SDS011;11362;48.102;11.620;2024-02-23T03:18:23;2.87;;;0.90;;
22388;SDS011;11362;48.102;11.620;2024-02-23T03:20:48;2.20;;;0.90;;
22388;SDS011;11362;48.102;11.620;2024-02-23T03:23:13;0.80;;;0.53;;
22388;SDS011;11362;48.102;11.620;2024-02-23T03:25:38;3.43;;;0.87;;
22388;SDS011;11362;48.102;11.620;2024-02-23T03:28:04;1.10;;;0.70;;
22388;SDS011;11362;48.102;11.620;2024-02-23T03:30:29;1.00;;;0.83;;
22388;SDS011;11362;48.102;11.620;2024-02-23T03:32:55;1.40;;;0.70;;
22388;SDS011;11362;48.102;11.620;2024-02-23T03:35:20;0.90;;;0.67;;
22388;SDS011;11362;48.102;11.620;2024-02-23T03:37:45;2.00;;;0.70;;
22388;SDS011;11362;48.102;11.620;2024-02-23T03:40:11;0.63;;;0.50;;
22388;SDS011;11362;48.102;11.620;2024-02-23T03:42:36;0.90;;;0.80;;
22388;SDS011;11362;48.102;11.620;2024-02-23T03:45:02;2.43;;;0.80;;
22388;SDS011;11362;48.102;11.620;2024-02-23T03:47:27;1.00;;;0.83;;
22388;SDS011;11362;48.102;11.620;2024-02-23T03:49:53;0.57;;;0.57;;
22388;SDS011;11362;48.102;11.620;2024-02-23T03:52:18;0.80;;;0.70;;
22388;SDS011;11362;48.102;11.620;2024-02-23T03:54:43;0.50;;;0.50;;
22388;SDS011;11362;48.102;11.620;2024-02-23T03:57:08;0.70;;;0.70;;
22388;SDS011;11362;48.102;11.620;2024-02-23T03:59:35;1.17;;;0.53;;
22388;SDS011;11362;48.102;11.620;2024-02-23T04:02:01;0.67;;;0.67;;
22388;SDS011;11362;48.102;11.620;2024-02-23T04:04:26;0.43;;;0.40;;
22388;SDS011;11362;48.102;11.620;2024-02-23T04:06:52;2.97;;;0.73;;
22388;SDS011;11362;48.102;11.620;2024-02-23T04:09:17;0.63;;;0.40;;
22388;SDS011;11362;48.102;11.620;2024-02-23T04:11:42;0.50;;;0.50;;
22388;SDS011;11362;48.102;11.620;2024-02-23T04:14:08;2.00;;;0.73;;
22388;SDS011;11362;48.102;11.620;2024-02-23T04:16:33;0.77;;;0.50;;
22388;SDS011;11362;48.102;11.620;2024-02-23T04:18:58;0.80;;;0.80;;
22388;SDS011;11362;48.102;11.620;2024-02-23T04:21:24;0.60;;;0.60;;
22388;SDS011;11362;48.102;11.620;2024-02-23T04:23:49;0.83;;;0.63;;
22388;SDS011;11362;48.102;11.620;2024-02-23T04:26:14;2.53;;;0.70;;
22388;SDS011;11362;48.102;11.620;2024-02-23T04:28:40;0.50;;;0.50;;
22388;SDS011;11362;48.102;11.620;2024-02-23T04:31:07;2.10;;;0.60;;
22388;SDS011;11362;48.102;11.620;2024-02-23T04:33:34;1.03;;;0.73;;
22388;SDS011;11362;48.102;11.620;2024-02-23T04:36:00;2.27;;;0.70;;
22388;SDS011;11362;48.102;11.620;2024-02-23T04:38:25;0.90;;;0.60;;
22388;SDS011;11362;48.102;11.620;2024-02-23T04:40:50;0.63;;;0.63;;
22388;SDS011;11362;48.102;11.620;2024-02-23T04:43:15;2.57;;;0.53;;
22388;SDS011;11362;48.102;11.620;2024-02-23T04:45:41;2.83;;;0.87;;
22388;SDS011;11362;48.102;11.620;2024-02-23T04:48:06;1.53;;;0.80;;
22388;SDS011;11362;48.102;11.620;2024-02-23T04:50:32;2.27;;;0.50;;
22388;SDS011;11362;48.102;11.620;2024-02-23T04:52:57;0.70;;;0.70;;
22388;SDS011;11362;48.102;11.620;2024-02-23T04:55:22;1.57;;;0.60;;
22388;SDS011;11362;48.102;11.620;2024-02-23T04:57:48;1.17;;;0.63;;
22388;SDS011;11362;48.102;11.620;2024-02-23T05:00:13;1.60;;;0.60;;
22388;SDS011;11362;48.102;11.620;2024-02-23T05:02:39;1.63;;;0.43;;
22388;SDS011;11362;48.102;11.620;2024-02-23T05:05:04;1.73;;;0.70;;
22388;SDS011;11362;48.102;11.620;2024-02-23T05:07:30;1.20;;;0.60;;
22388;SDS011;11362;48.102;11.620;2024-02-23T05:09:56;1.73;;;0.80;;
22388;SDS011;11362;48.102;11.620;2024-02-23T05:12:21;1.17;;;0.70;;
22388;SDS011;11362;48.102;11.620;2024-02-23T05:14:46;0.63;;;0.47;;
22388;SDS011;11362;48.102;11.620;2024-02-23T05:17:12;2.00;;;0.60;;
22388;SDS011;11362;48.102;11.620;2024-02-23T05:19:37;1.13;;;0.53;;
22388;SDS011;11362;48.102;11.620;2024-02-23T05:22:02;1.90;;;0.50;;
22388;SDS011;11362;48.102;11.620;2024-02-23T05:24:28;0.87;;;0.50;;
22388;SDS011;11362;48.102;11.620;2024-02-23T05:26:53;0.50;;;0.50;;
22388;SDS011;11362;48.102;11.620;2024-02-23T05:29:18;0.90;;;0.50;;
22388;SDS011;11362;48.102;11.620;2024-02-23T05:31:47;2.17;;;0.50;;
22388;SDS011;11362;48.102;11.620;2024-02-23T05:34:14;0.73;;;0.60;;
22388;SDS011;11362;48.102;11.620;2024-02-23T05:36:40;1.60;;;0.53;;
22388;SDS011;11362;48.102;11.620;2024-02-23T05:39:05;0.80;;;0.80;;
22388;SDS011;11362;48.102;11.620;2024-02-23T05:41:31;0.73;;;0.50;;
22388;SDS011;11362;48.102;11.620;2024-02-23T05:43:56;0.50;;;0.40;;
22388;SDS011;11362;48.102;11.620;2024-02-23T05:46:21;0.93;;;0.60;;
22388;SDS011;11362;48.102;11.620;2024-02-23T05:48:47;0.93;;;0.53;;
22388;SDS011;11362;48.102;11.620;2024-02-23T05:51:12;0.73;;;0.50;;
22388;SDS011;11362;48.102;11.620;2024-02-23T05:53:37;1.20;;;0.50;;
22388;SDS011;11362;48.102;11.620;2024-02-23T05:56:03;0.40;;;0.40;;
22388;SDS011;11362;48.102;11.620;2024-02-23T05:58:28;0.83;;;0.40;;
22388;SDS011;11362;48.102;11.620;2024-02-23T06:00:53;0.63;;;0.63;;
22388;SDS011;11362;48.102;11.620;2024-02-23T06:03:19;0.30;;;0.30;;
22388;SDS011;11362;48.102;11.620;2024-02-23T06:05:44;0.50;;;0.50;;
22388;SDS011;11362;48.102;11.620;2024-02-23T06:08:09;0.97;;;0.50;;
22388;SDS011;11362;48.102;11.620;2024-02-23T06:10:35;1.50;;;0.50;;
22388;SDS011;11362;48.102;11.620;2024-02-23T06:13:00;2.03;;;0.50;;
22388;SDS011;11362;48.102;11.620;2024-02-23T06:15:25;0.97;;;0.60;;
22388;SDS011;11362;48.102;11.620;2024-02-23T06:17:50;4.93;;;0.93;;
22388;SDS011;11362;48.102;11.620;2024-02-23T06:20:16;4.83;;;1.00;;
22388;SDS011;11362;48.102;11.620;2024-02-23T06:22:41;5.93;;;0.80;;
22388;SDS011;11362;48.102;11.620;2024-02-23T06:25:06;3.90;;;0.60;;
22388;SDS011;11362;48.102;11.620;2024-02-23T06:27:32;4.77;;;0.93;;
22388;SDS011;11362;48.102;11.620;2024-02-23T06:29:57;4.67;;;0.80;;
22388;SDS011;11362;48.102;11.620;2024-02-23T06:32:22;5.53;;;1.13;;
22388;SDS011;11362;48.102;11.620;2024-02-23T06:34:48;2.87;;;1.00;;
22388;SDS011;11362;48.102;11.620;2024-02-23T06:37:13;6.57;;;1.13;;
22388;SDS011;11362;48.102;11.620;2024-02-23T06:39:38;3.33;;;1.00;;
22388;SDS011;11362;48.102;11.620;2024-02-23T06:42:04;4.30;;;0.97;;
22388;SDS011;11362;48.102;11.620;2024-02-23T06:44:29;8.37;;;1.13;;
22388;SDS011;11362;48.102;11.620;2024-02-23T06:46:55;4.07;;;1.00;;
22388;SDS011;11362;48.102;11.620;2024-02-23T06:49:20;5.57;;;1.10;;
22388;SDS011;11362;48.102;11.620;2024-02-23T06:51:46;3.70;;;0.83;;
22388;SDS011;11362;48.102;11.620;2024-02-23T06:54:11;4.30;;;1.20;;
22388;SDS011;11362;48.102;11.620;2024-02-23T06:56:36;7.60;;;1.27;;
22388;SDS011;11362;48.102;11.620;2024-02-23T06:59:02;6.10;;;1.13;;
22388;SDS011;11362;48.102;11.620;2024-02-23T07:01:27;4.73;;;1.67;;
22388;SDS011;11362;48.102;11.620;2024-02-23T07:03:53;5.73;;;1.07;;
22388;SDS011;11362;48.102;11.620;2024-02-23T07:06:18;10.97;;;1.60;;
22388;SDS011;11362;48.102;11.620;2024-02-23T07:08:43;9.00;;;1.37;;
22388;SDS011;11362;48.102;11.620;2024-02-23T07:11:09;6.03;;;1.27;;
22388;SDS011;11362;48.102;11.620;2024-02-23T07:13:34;6.47;;;1.60;;
22388;SDS011;11362;48.102;11.620;2024-02-23T07:16:00;5.37;;;1.37;;
22388;SDS011;11362;48.102;11.620;2024-02-23T07:18:25;4.83;;;1.20;;
22388;SDS011;11362;48.102;11.620;2024-02-23T07:20:51;9.70;;;1.67;;
22388;SDS011;11362;48.102;11.620;2024-02-23T07:23:16;8.50;;;1.57;;
22388;SDS011;11362;48.102;11.620;2024-02-23T07:25:41;6.73;;;1.70;;
22388;SDS011;11362;48.102;11.620;2024-02-23T07:28:07;8.70;;;2.13;;
22388;SDS011;11362;48.102;11.620;2024-02-23T07:30:32;6.33;;;1.20;;
22388;SDS011;11362;48.102;11.620;2024-02-23T07:32:57;10.67;;;2.13;;
22388;SDS011;11362;48.102;11.620;2024-02-23T07:35:23;6.40;;;1.70;;
22388;SDS011;11362;48.102;11.620;2024-02-23T07:37:48;5.83;;;1.50;;
22388;SDS011;11362;48.102;11.620;2024-02-23T07:40:13;6.23;;;1.83;;
22388;SDS011;11362;48.102;11.620;2024-02-23T07:42:39;10.77;;;1.50;;
22388;SDS011;11362;48.102;11.620;2024-02-23T07:45:04;7.50;;;1.80;;
22388;SDS011;11362;48.102;11.620;2024-02-23T07:47:31;8.87;;;1.47;;
22388;SDS011;11362;48.102;11.620;2024-02-23T07:49:57;5.00;;;1.23;;
22388;SDS011;11362;48.102;11.620;2024-02-23T07:52:22;4.00;;;1.17;;
22388;SDS011;11362;48.102;11.620;2024-02-23T07:54:48;7.03;;;1.47;;
22388;SDS011;11362;48.102;11.620;2024-02-23T07:57:13;4.27;;;1.50;;
22388;SDS011;11362;48.102;11.620;2024-02-23T07:59:38;5.70;;;1.70;;
22388;SDS011;11362;48.102;11.620;2024-02-23T08:02:04;4.87;;;1.70;;
22388;SDS011;11362;48.102;11.620;2024-02-23T08:04:29;7.93;;;2.00;;
22388;SDS011;11362;48.102;11.620;2024-02-23T08:06:54;3.73;;;1.00;;
22388;SDS011;11362;48.102;11.620;2024-02-23T08:09:20;7.57;;;1.83;;
22388;SDS011;11362;48.102;11.620;2024-02-23T08:11:45;8.00;;;1.40;;
22388;SDS011;11362;48.102;11.620;2024-02-23T08:14:10;8.30;;;1.40;;
22388;SDS011;11362;48.102;11.620;2024-02-23T08:16:36;3.37;;;1.40;;
22388;SDS011;11362;48.102;11.620;2024-02-23T08:19:01;3.07;;;1.63;;
22388;SDS011;11362;48.102;11.620;2024-02-23T08:21:26;3.70;;;1.10;;
22388;SDS011;11362;48.102;11.620;2024-02-23T08:23:52;4.50;;;1.20;;
22388;SDS011;11362;48.102;11.620;2024-02-23T08:26:17;3.13;;;1.20;;
22388;SDS011;11362;48.102;11.620;2024-02-23T08:28:43;3.77;;;1.23;;
22388;SDS011;11362;48.102;11.620;2024-02-23T08:31:08;3.73;;;1.33;;
22388;SDS011;11362;48.102;11.620;2024-02-23T08:33:34;4.27;;;1.00;;
22388;SDS011;11362;48.102;11.620;2024-02-23T08:35:59;2.47;;;1.07;;
22388;SDS011;11362;48.102;11.620;2024-02-23T08:38:25;4.80;;;1.00;;
22388;SDS011;11362;48.102;11.620;2024-02-23T08:40:50;4.77;;;1.17;;
22388;SDS011;11362;48.102;11.620;2024-02-23T08:43:15;6.43;;;1.07;;
22388;SDS011;11362;48.102;11.620;2024-02-23T08:45:41;2.97;;;0.90;;
22388;SDS011;11362;48.102;11.620;2024-02-23T08:48:06;8.67;;;1.67;;
22388;SDS011;11362;48.102;11.620;2024-02-23T08:50:31;7.17;;;1.30;;
22388;SDS011;11362;48.102;11.620;2024-02-23T08:52:57;7.43;;;1.37;;
22388;SDS011;11362;48.102;11.620;2024-02-23T08:55:22;5.33;;;1.20;;
22388;SDS011;11362;48.102;11.620;2024-02-23T08:57:47;11.33;;;1.40;;
22388;SDS011;11362;48.102;11.620;2024-02-23T09:00:13;7.63;;;1.37;;
22388;SDS011;11362;48.102;11.620;2024-02-23T09:02:39;4.47;;;1.53;;
22388;SDS011;11362;48.102;11.620;2024-02-23T09:05:04;6.40;;;1.13;;
22388;SDS011;11362;48.102;11.620;2024-02-23T09:07:30;7.13;;;0.93;;
22388;SDS011;11362;48.102;11.620;2024-02-23T09:09:55;11.50;;;1.70;;
22388;SDS011;11362;48.102;11.620;2024-02-23T09:12:21;8.47;;;1.83;;
22388;SDS011;11362;48.102;11.620;2024-02-23T09:14:46;7.13;;;1.73;;
22388;SDS011;11362;48.102;11.620;2024-02-23T09:17:11;8.60;;;1.33;;
22388;SDS011;11362;48.102;11.620;2024-02-23T09:19:37;8.10;;;1.90;;
22388;SDS011;11362;48.102;11.620;2024-02-23T09:22:02;4.80;;;1.50;;
22388;SDS011;11362;48.102;11.620;2024-02-23T09:24:28;12.10;;;1.93;;
22388;SDS011;11362;48.102;11.620;2024-02-23T09:26:53;6.07;;;2.27;;
22388;SDS011;11362;48.102;11.620;2024-02-23T09:29:18;9.37;;;1.53;;
22388;SDS011;11362;48.102;11.620;2024-02-23T09:31:44;8.57;;;1.80;;
22388;SDS011;11362;48.102;11.620;2024-02-23T09:34:09;7.17;;;1.53;;
22388;SDS011;11362;48.102;11.620;2024-02-23T09:36:34;11.10;;;2.03;;
22388;SDS011;11362;48.102;11.620;2024-02-23T09:38:59;7.93;;;1.60;;
22388;SDS011;11362;48.102;11.620;2024-02-23T09:41:25;6.37;;;1.13;;
22388;SDS011;11362;48.102;11.620;2024-02-23T09:43:50;6.00;;;1.60;;
22388;SDS011;11362;48.102;11.620;2024-02-23T09:46:16;5.30;;;1.40;;
22388;SDS011;11362;48.102;11.620;2024-02-23T09:48:42;2.73;;;0.70;;
22388;SDS011;11362;48.102;11.620;2024-02-23T09:51:08;6.87;;;1.40;;
22388;SDS011;11362;48.102;11.620;2024-02-23T09:53:36;3.80;;;1.37;;
22388;SDS011;11362;48.102;11.620;2024-02-23T09:56:02;7.47;;;1.77;;
22388;SDS011;11362;48.102;11.620;2024-02-23T09:58:29;11.10;;;1.47;;
22388;SDS011;11362;48.102;11.620;2024-02-23T10:00:59;2.87;;;0.90;;
22388;SDS011;11362;48.102;11.620;2024-02-23T10:03:30;4.70;;;1.37;;
22388;SDS011;11362;48.102;11.620;2024-02-23T10:05:55;2.30;;;1.17;;
22388;SDS011;11362;48.102;11.620;2024-02-23T10:08:24;4.07;;;1.13;;
22388;SDS011;11362;48.102;11.620;2024-02-23T10:10:49;3.70;;;1.20;;
22388;SDS011;11362;48.102;11.620;2024-02-23T10:13:17;3.80;;;1.07;;
22388;SDS011;11362;48.102;11.620;2024-02-23T10:15:43;6.87;;;1.83;;
22388;SDS011;11362;48.102;11.620;2024-02-23T10:18:08;7.27;;;1.43;;
22388;SDS011;11362;48.102;11.620;2024-02-23T10:20:33;7.10;;;1.40;;
22388;SDS011;11362;48.102;11.620;2024-02-23T10:22:59;2.50;;;0.93;;
22388;SDS011;11362;48.102;11.620;2024-02-23T10:25:24;4.87;;;0.97;;
22388;SDS011;11362;48.102;11.620;2024-02-23T10:27:49;6.00;;;1.10;;
22388;SDS011;11362;48.102;11.620;2024-02-23T10:30:15;2.33;;;0.90;;
22388;SDS011;11362;48.102;11.620;2024-02-23T10:32:40;3.53;;;0.80;;
22388;SDS011;11362;48.102;11.620;2024-02-23T10:35:11;2.93;;;1.03;;
22388;SDS011;11362;48.102;11.620;2024-02-23T10:37:40;2.67;;;0.90;;
22388;SDS011;11362;48.102;11.620;2024-02-23T10:40:07;2.13;;;1.10;;
22388;SDS011;11362;48.102;11.620;2024-02-23T10:42:36;4.27;;;1.10;;
22388;SDS011;11362;48.102;11.620;2024-02-23T10:45:03;5.93;;;1.00;;
22388;SDS011;11362;48.102;11.620;2024-02-23T10:47:30;3.97;;;1.33;;
22388;SDS011;11362;48.102;11.620;2024-02-23T10:49:55;3.83;;;1.03;;
22388;SDS011;11362;48.102;11.620;2024-02-23T10:52:25;3.23;;;0.80;;
22388;SDS011;11362;48.102;11.620;2024-02-23T10:54:51;4.70;;;0.97;;
22388;SDS011;11362;48.102;11.620;2024-02-23T10:57:17;0.90;;;0.80;;
22388;SDS011;11362;48.102;11.620;2024-02-23T10:59:44;3.23;;;0.90;;
22388;SDS011;11362;48.102;11.620;2024-02-23T11:02:11;2.53;;;0.80;;
22388;SDS011;11362;48.102;11.620;2024-02-23T11:04:37;2.23;;;1.17;;
22388;SDS011;11362;48.102;11.620;2024-02-23T11:07:03;6.23;;;1.63;;
22388;SDS011;11362;48.102;11.620;2024-02-23T11:09:28;6.00;;;1.30;;
22388;SDS011;11362;48.102;11.620;2024-02-23T11:11:57;6.13;;;1.27;;
22388;SDS011;11362;48.102;11.620;2024-02-23T11:14:35;4.87;;;1.20;;
22388;SDS011;11362;48.102;11.620;2024-02-23T11:17:02;5.23;;;1.37;;
22388;SDS011;11362;48.102;11.620;2024-02-23T11:19:32;4.13;;;1.13;;
22388;SDS011;11362;48.102;11.620;2024-02-23T11:22:01;6.87;;;1.47;;
22388;SDS011;11362;48.102;11.620;2024-02-23T11:24:31;2.40;;;1.00;;
22388;SDS011;11362;48.102;11.620;2024-02-23T11:26:57;6.63;;;1.67;;
22388;SDS011;11362;48.102;11.620;2024-02-23T11:29:25;8.13;;;1.47;;
22388;SDS011;11362;48.102;11.620;2024-02-23T11:31:51;6.13;;;1.30;;
22388;SDS011;11362;48.102;11.620;2024-02-23T11:34:21;2.67;;;1.07;;
22388;SDS011;11362;48.102;11.620;2024-02-23T11:36:51;4.23;;;1.20;;
22388;SDS011;11362;48.102;11.620;2024-02-23T11:39:16;3.57;;;1.00;;
22388;SDS011;11362;48.102;11.620;2024-02-23T11:41:42;3.93;;;0.93;;
22388;SDS011;11362;48.102;11.620;2024-02-23T11:44:08;5.07;;;1.00;;
22388;SDS011;11362;48.102;11.620;2024-02-23T11:46:34;3.77;;;0.60;;
22388;SDS011;11362;48.102;11.620;2024-02-23T11:48:59;3.07;;;0.93;;
22388;SDS011;11362;48.102;11.620;2024-02-23T11:51:24;3.00;;;0.87;;
22388;SDS011;11362;48.102;11.620;2024-02-23T11:53:50;2.50;;;1.07;;
22388;SDS011;11362;48.102;11.620;2024-02-23T11:56:15;3.70;;;0.97;;
22388;SDS011;11362;48.102;11.620;2024-02-23T11:58:41;2.40;;;1.17;;
22388;SDS011;11362;48.102;11.620;2024-02-23T12:01:07;3.10;;;1.10;;
22388;SDS011;11362;48.102;11.620;2024-02-23T12:03:33;2.20;;;0.93;;
22388;SDS011;11362;48.102;11.620;2024-02-23T12:06:01;1.90;;;0.70;;
22388;SDS011;11362;48.102;11.620;2024-02-23T12:08:28;4.27;;;1.23;;
22388;SDS011;11362;48.102;11.620;2024-02-23T12:10:55;3.13;;;1.03;;
22388;SDS011;11362;48.102;11.620;2024-02-23T12:13:22;2.60;;;1.13;;
22388;SDS011;11362;48.102;11.620;2024-02-23T12:15:47;2.90;;;0.60;;
22388;SDS011;11362;48.102;11.620;2024-02-23T12:18:13;3.47;;;1.10;;
22388;SDS011;11362;48.102;11.620;2024-02-23T12:20:38;2.73;;;0.57;;
22388;SDS011;11362;48.102;11.620;2024-02-23T12:23:04;2.63;;;0.80;;
22388;SDS011;11362;48.102;11.620;2024-02-23T12:25:29;4.70;;;0.90;;
22388;SDS011;11362;48.102;11.620;2024-02-23T12:27:55;5.47;;;0.90;;
22388;SDS011;11362;48.102;11.620;2024-02-23T12:30:21;2.00;;;0.90;;
22388;SDS011;11362;48.102;11.620;2024-02-23T12:32:46;3.60;;;0.63;;
22388;SDS011;11362;48.102;11.620;2024-02-23T12:35:11;1.83;;;0.80;;
22388;SDS011;11362;48.102;11.620;2024-02-23T12:37:37;1.27;;;0.70;;
22388;SDS011;11362;48.102;11.620;2024-02-23T12:40:02;2.23;;;0.80;;
22388;SDS011;11362;48.102;11.620;2024-02-23T12:42:28;3.63;;;0.90;;
22388;SDS011;11362;48.102;11.620;2024-02-23T12:44:53;5.83;;;1.10;;
22388;SDS011;11362;48.102;11.620;2024-02-23T12:47:18;5.00;;;1.07;;
22388;SDS011;11362;48.102;11.620;2024-02-23T12:49:44;3.73;;;1.07;;
22388;SDS011;11362;48.102;11.620;2024-02-23T12:52:09;6.13;;;1.80;;
22388;SDS011;11362;48.102;11.620;2024-02-23T12:54:34;3.13;;;1.30;;
22388;SDS011;11362;48.102;11.620;2024-02-23T12:57:00;5.70;;;1.73;;
22388;SDS011;11362;48.102;11.620;2024-02-23T12:59:25;2.73;;;1.27;;
22388;SDS011;11362;48.102;11.620;2024-02-23T13:01:50;4.87;;;1.30;;
22388;SDS011;11362;48.102;11.620;2024-02-23T13:04:16;6.87;;;1.50;;
22388;SDS011;11362;48.102;11.620;2024-02-23T13:06:41;10.17;;;1.67;;
22388;SDS011;11362;48.102;11.620;2024-02-23T13:09:06;5.73;;;1.73;;
22388;SDS011;11362;48.102;11.620;2024-02-23T13:11:32;6.53;;;1.83;;
22388;SDS011;11362;48.102;11.620;2024-02-23T13:13:57;5.57;;;1.47;;
22388;SDS011;11362;48.102;11.620;2024-02-23T13:16:22;8.67;;;1.87;;
22388;SDS011;11362;48.102;11.620;2024-02-23T13:18:48;6.70;;;1.80;;
22388;SDS011;11362;48.102;11.620;2024-02-23T13:21:13;7.57;;;1.70;;
22388;SDS011;11362;48.102;11.620;2024-02-23T13:23:39;8.80;;;1.90;;
22388;SDS011;11362;48.102;11.620;2024-02-23T13:26:05;9.83;;;1.27;;
22388;SDS011;11362;48.102;11.620;2024-02-23T13:28:31;3.77;;;1.30;;
22388;SDS011;11362;48.102;11.620;2024-02-23T13:30:56;7.80;;;1.50;;
22388;SDS011;11362;48.102;11.620;2024-02-23T13:33:22;4.40;;;1.67;;
22388;SDS011;11362;48.102;11.620;2024-02-23T13:35:47;11.40;;;2.13;;
22388;SDS011;11362;48.102;11.620;2024-02-23T13:38:13;7.40;;;1.87;;
22388;SDS011;11362;48.102;11.620;2024-02-23T13:40:38;10.30;;;1.93;;
22388;SDS011;11362;48.102;11.620;2024-02-23T13:43:04;7.23;;;1.83;;
22388;SDS011;11362;48.102;11.620;2024-02-23T13:45:29;11.20;;;2.30;;
22388;SDS011;11362;48.102;11.620;2024-02-23T13:47:59;8.17;;;1.67;;
22388;SDS011;11362;48.102;11.620;2024-02-23T13:50:26;7.47;;;2.23;;
22388;SDS011;11362;48.102;11.620;2024-02-23T13:52:52;10.70;;;1.80;;
22388;SDS011;11362;48.102;11.620;2024-02-23T13:55:17;11.37;;;2.10;;
22388;SDS011;11362;48.102;11.620;2024-02-23T13:57:43;6.90;;;1.97;;
22388;SDS011;11362;48.102;11.620;2024-02-23T14:00:08;8.30;;;2.13;;
22388;SDS011;11362;48.102;11.620;2024-02-23T14:02:34;6.03;;;2.00;;
22388;SDS011;11362;48.102;11.620;2024-02-23T14:05:00;9.27;;;2.13;;
22388;SDS011;11362;48.102;11.620;2024-02-23T14:07:27;6.30;;;1.73;;
22388;SDS011;11362;48.102;11.620;2024-02-23T14:09:52;6.23;;;1.77;;
22388;SDS011;11362;48.102;11.620;2024-02-23T14:12:17;7.27;;;2.13;;
22388;SDS011;11362;48.102;11.620;2024-02-23T14:14:42;5.47;;;1.63;;
22388;SDS011;11362;48.102;11.620;2024-02-23T14:17:08;11.80;;;1.77;;
22388;SDS011;11362;48.102;11.620;2024-02-23T14:19:33;10.47;;;1.97;;
22388;SDS011;11362;48.102;11.620;2024-02-23T14:21:58;7.90;;;1.40;;
22388;SDS011;11362;48.102;11.620;2024-02-23T14:24:24;6.27;;;1.73;;